sensor_id;sensor_type;location;lat;lon;timestamp;temperature;humidity
6164;DHT22;3114;48.362;10.994;2022-08-19T00:01:19;19.40;99.90
6164;DHT22;3114;48.362;10.994;2022-08-19T00:03:49;19.40;99.90
6164;DHT22;3114;48.362;10.994;2022-08-19T00:06:16;19.60;99.90
6164;DHT22;3114;48.362;10.994;2022-08-19T00:08:43;19.70;99.90
6164;DHT22;3114;48.362;10.994;2022-08-19T00:11:11;19.40;99.90
6164;DHT22;3114;48.362;10.994;2022-08-19T00:13:38;20.70;99.90
6164;DHT22;3114;48.362;10.994;2022-08-19T00:16:07;19.50;99.90
6164;DHT22;3114;48.362;10.994;2022-08-19T00:18:34;19.70;99.90
6164;DHT22;3114;48.362;10.994;2022-08-19T00:21:01;19.80;99.90
6164;DHT22;3114;48.362;10.994;2022-08-19T00:23:28;19.60;99.90
6164;DHT22;3114;48.362;10.994;2022-08-19T00:25:55;19.70;99.90
6164;DHT22;3114;48.362;10.994;2022-08-19T00:28:23;19.60;99.90
6164;DHT22;3114;48.362;10.994;2022-08-19T00:30:49;19.50;99.90
6164;DHT22;3114;48.362;10.994;2022-08-19T00:33:23;19.50;99.90
6164;DHT22;3114;48.362;10.994;2022-08-19T00:35:51;19.60;99.90
6164;DHT22;3114;48.362;10.994;2022-08-19T00:38:21;19.80;99.90
6164;DHT22;3114;48.362;10.994;2022-08-19T00:40:48;19.80;99.90
6164;DHT22;3114;48.362;10.994;2022-08-19T00:43:20;19.80;99.90
6164;DHT22;3114;48.362;10.994;2022-08-19T00:45:47;19.90;99.90
6164;DHT22;3114;48.362;10.994;2022-08-19T00:48:15;19.80;99.90
6164;DHT22;3114;48.362;10.994;2022-08-19T00:50:46;19.70;99.90
6164;DHT22;3114;48.362;10.994;2022-08-19T00:53:16;18.70;99.90
6164;DHT22;3114;48.362;10.994;2022-08-19T00:55:47;19.70;99.90
6164;DHT22;3114;48.362;10.994;2022-08-19T00:58:39;19.60;99.90
6164;DHT22;3114;48.362;10.994;2022-08-19T01:01:19;19.50;99.90
6164;DHT22;3114;48.362;10.994;2022-08-19T01:10:50;20.70;99.90
6164;DHT22;3114;48.362;10.994;2022-08-19T01:20:20;19.50;99.90
6164;DHT22;3114;48.362;10.994;2022-08-19T01:30:24;20.60;99.90
6164;DHT22;3114;48.362;10.994;2022-08-19T01:32:57;19.10;99.90
6164;DHT22;3114;48.362;10.994;2022-08-19T01:39:06;19.10;99.90
6164;DHT22;3114;48.362;10.994;2022-08-19T01:45:25;19.00;99.90
6164;DHT22;3114;48.362;10.994;2022-08-19T01:48:11;19.00;99.90
6164;DHT22;3114;48.362;10.994;2022-08-19T01:50:39;19.10;99.90
6164;DHT22;3114;48.362;10.994;2022-08-19T01:53:10;19.00;99.90
6164;DHT22;3114;48.362;10.994;2022-08-19T01:55:43;19.20;99.90
6164;DHT22;3114;48.362;10.994;2022-08-19T01:58:27;19.30;99.90
6164;DHT22;3114;48.362;10.994;2022-08-19T02:01:04;19.40;99.90
6164;DHT22;3114;48.362;10.994;2022-08-19T02:03:32;19.40;99.90
6164;DHT22;3114;48.362;10.994;2022-08-19T02:06:15;19.50;99.90
6164;DHT22;3114;48.362;10.994;2022-08-19T02:08:53;19.30;99.90
6164;DHT22;3114;48.362;10.994;2022-08-19T02:11:25;19.50;99.90
6164;DHT22;3114;48.362;10.994;2022-08-19T02:14:04;19.50;99.90
6164;DHT22;3114;48.362;10.994;2022-08-19T02:16:34;19.50;99.90
6164;DHT22;3114;48.362;10.994;2022-08-19T02:19:03;19.60;99.90
6164;DHT22;3114;48.362;10.994;2022-08-19T02:27:50;21.00;99.90
6164;DHT22;3114;48.362;10.994;2022-08-19T02:30:33;19.40;99.90
6164;DHT22;3114;48.362;10.994;2022-08-19T02:33:04;19.20;99.90
6164;DHT22;3114;48.362;10.994;2022-08-19T02:35:31;19.60;99.90
6164;DHT22;3114;48.362;10.994;2022-08-19T02:38:00;19.40;99.90
6164;DHT22;3114;48.362;10.994;2022-08-19T02:40:52;19.40;99.90
6164;DHT22;3114;48.362;10.994;2022-08-19T02:43:20;19.10;99.90
6164;DHT22;3114;48.362;10.994;2022-08-19T02:45:52;19.20;99.90
6164;DHT22;3114;48.362;10.994;2022-08-19T02:48:23;19.10;99.90
6164;DHT22;3114;48.362;10.994;2022-08-19T02:50:51;19.10;99.90
6164;DHT22;3114;48.362;10.994;2022-08-19T02:53:21;19.20;99.90
6164;DHT22;3114;48.362;10.994;2022-08-19T02:55:49;19.10;99.90
6164;DHT22;3114;48.362;10.994;2022-08-19T02:58:17;19.20;99.90
6164;DHT22;3114;48.362;10.994;2022-08-19T03:00:46;19.30;99.90
6164;DHT22;3114;48.362;10.994;2022-08-19T03:03:15;19.30;99.90
6164;DHT22;3114;48.362;10.994;2022-08-19T03:05:49;19.20;99.90
6164;DHT22;3114;48.362;10.994;2022-08-19T03:08:32;19.20;99.90
6164;DHT22;3114;48.362;10.994;2022-08-19T03:11:04;20.00;99.90
6164;DHT22;3114;48.362;10.994;2022-08-19T03:13:33;19.30;99.90
6164;DHT22;3114;48.362;10.994;2022-08-19T03:16:04;19.40;99.90
6164;DHT22;3114;48.362;10.994;2022-08-19T03:18:32;19.30;99.90
6164;DHT22;3114;48.362;10.994;2022-08-19T03:21:09;19.10;99.90
6164;DHT22;3114;48.362;10.994;2022-08-19T03:24:08;19.00;99.90
6164;DHT22;3114;48.362;10.994;2022-08-19T03:26:54;18.80;99.90
6164;DHT22;3114;48.362;10.994;2022-08-19T03:29:31;18.90;99.90
6164;DHT22;3114;48.362;10.994;2022-08-19T03:32:24;19.10;99.90
6164;DHT22;3114;48.362;10.994;2022-08-19T03:35:19;19.20;99.90
6164;DHT22;3114;48.362;10.994;2022-08-19T03:38:10;18.80;99.90
6164;DHT22;3114;48.362;10.994;2022-08-19T03:40:54;19.40;99.90
6164;DHT22;3114;48.362;10.994;2022-08-19T03:43:37;19.40;99.90
6164;DHT22;3114;48.362;10.994;2022-08-19T03:46:22;19.30;99.90
6164;DHT22;3114;48.362;10.994;2022-08-19T03:48:52;19.30;99.90
6164;DHT22;3114;48.362;10.994;2022-08-19T03:51:23;19.20;99.90
6164;DHT22;3114;48.362;10.994;2022-08-19T03:53:52;19.30;99.90
6164;DHT22;3114;48.362;10.994;2022-08-19T03:56:46;19.60;99.90
6164;DHT22;3114;48.362;10.994;2022-08-19T03:59:15;19.70;99.90
6164;DHT22;3114;48.362;10.994;2022-08-19T04:01:46;19.50;99.90
6164;DHT22;3114;48.362;10.994;2022-08-19T04:04:13;19.50;99.90
6164;DHT22;3114;48.362;10.994;2022-08-19T04:06:43;19.30;99.90
6164;DHT22;3114;48.362;10.994;2022-08-19T04:09:14;19.40;99.90
6164;DHT22;3114;48.362;10.994;2022-08-19T04:11:44;19.50;99.90
6164;DHT22;3114;48.362;10.994;2022-08-19T04:14:13;19.70;99.90
6164;DHT22;3114;48.362;10.994;2022-08-19T04:16:41;19.70;99.90
6164;DHT22;3114;48.362;10.994;2022-08-19T04:19:09;19.90;99.90
6164;DHT22;3114;48.362;10.994;2022-08-19T04:21:36;20.00;99.90
6164;DHT22;3114;48.362;10.994;2022-08-19T04:24:04;20.20;99.90
6164;DHT22;3114;48.362;10.994;2022-08-19T04:26:34;20.20;99.90
6164;DHT22;3114;48.362;10.994;2022-08-19T04:29:05;20.30;99.90
6164;DHT22;3114;48.362;10.994;2022-08-19T04:31:33;20.30;99.90
6164;DHT22;3114;48.362;10.994;2022-08-19T04:34:04;20.40;99.90
6164;DHT22;3114;48.362;10.994;2022-08-19T04:36:34;20.50;99.90
6164;DHT22;3114;48.362;10.994;2022-08-19T04:39:04;20.40;99.90
6164;DHT22;3114;48.362;10.994;2022-08-19T04:41:33;20.50;99.90
6164;DHT22;3114;48.362;10.994;2022-08-19T04:44:18;20.30;99.90
6164;DHT22;3114;48.362;10.994;2022-08-19T04:46:46;20.10;99.90
6164;DHT22;3114;48.362;10.994;2022-08-19T04:49:14;20.10;99.90
6164;DHT22;3114;48.362;10.994;2022-08-19T04:51:44;20.00;99.90
6164;DHT22;3114;48.362;10.994;2022-08-19T04:54:13;19.80;99.90
6164;DHT22;3114;48.362;10.994;2022-08-19T04:56:41;19.80;99.90
6164;DHT22;3114;48.362;10.994;2022-08-19T04:59:09;19.80;99.90
6164;DHT22;3114;48.362;10.994;2022-08-19T05:01:36;19.60;99.90
6164;DHT22;3114;48.362;10.994;2022-08-19T05:04:05;19.70;99.90
6164;DHT22;3114;48.362;10.994;2022-08-19T05:06:33;20.00;99.90
6164;DHT22;3114;48.362;10.994;2022-08-19T05:09:01;20.10;99.90
6164;DHT22;3114;48.362;10.994;2022-08-19T05:11:30;19.90;99.90
6164;DHT22;3114;48.362;10.994;2022-08-19T05:13:59;20.00;99.90
6164;DHT22;3114;48.362;10.994;2022-08-19T05:16:27;19.70;99.90
6164;DHT22;3114;48.362;10.994;2022-08-19T05:18:55;19.40;99.90
6164;DHT22;3114;48.362;10.994;2022-08-19T05:21:40;19.40;99.90
6164;DHT22;3114;48.362;10.994;2022-08-19T05:24:26;19.40;99.90
6164;DHT22;3114;48.362;10.994;2022-08-19T05:26:54;19.60;99.90
6164;DHT22;3114;48.362;10.994;2022-08-19T05:29:26;19.60;99.90
6164;DHT22;3114;48.362;10.994;2022-08-19T05:31:55;19.70;99.90
6164;DHT22;3114;48.362;10.994;2022-08-19T05:34:23;19.90;99.90
6164;DHT22;3114;48.362;10.994;2022-08-19T05:36:52;20.00;99.90
6164;DHT22;3114;48.362;10.994;2022-08-19T05:39:22;19.90;99.90
6164;DHT22;3114;48.362;10.994;2022-08-19T05:41:51;19.80;99.90
6164;DHT22;3114;48.362;10.994;2022-08-19T05:44:19;19.80;99.90
6164;DHT22;3114;48.362;10.994;2022-08-19T05:46:49;19.90;99.90
6164;DHT22;3114;48.362;10.994;2022-08-19T05:49:33;20.00;99.90
6164;DHT22;3114;48.362;10.994;2022-08-19T05:52:02;20.00;99.90
6164;DHT22;3114;48.362;10.994;2022-08-19T05:54:30;20.10;99.90
6164;DHT22;3114;48.362;10.994;2022-08-19T05:56:58;21.10;99.90
6164;DHT22;3114;48.362;10.994;2022-08-19T05:59:43;20.40;99.90
6164;DHT22;3114;48.362;10.994;2022-08-19T06:02:15;20.50;99.90
6164;DHT22;3114;48.362;10.994;2022-08-19T06:04:41;20.60;99.90
6164;DHT22;3114;48.362;10.994;2022-08-19T06:07:09;20.50;99.90
6164;DHT22;3114;48.362;10.994;2022-08-19T06:09:36;20.40;99.90
6164;DHT22;3114;48.362;10.994;2022-08-19T06:12:03;20.40;99.90
6164;DHT22;3114;48.362;10.994;2022-08-19T06:14:33;20.40;99.90
6164;DHT22;3114;48.362;10.994;2022-08-19T06:17:03;20.50;99.90
6164;DHT22;3114;48.362;10.994;2022-08-19T06:19:31;20.50;99.90
6164;DHT22;3114;48.362;10.994;2022-08-19T06:22:09;20.30;99.90
6164;DHT22;3114;48.362;10.994;2022-08-19T06:24:39;20.30;99.90
6164;DHT22;3114;48.362;10.994;2022-08-19T06:27:06;20.50;99.90
6164;DHT22;3114;48.362;10.994;2022-08-19T06:29:34;20.50;99.90
6164;DHT22;3114;48.362;10.994;2022-08-19T06:32:03;20.50;99.90
6164;DHT22;3114;48.362;10.994;2022-08-19T06:34:34;20.50;99.90
6164;DHT22;3114;48.362;10.994;2022-08-19T06:37:05;20.60;99.90
6164;DHT22;3114;48.362;10.994;2022-08-19T06:39:34;20.70;99.90
6164;DHT22;3114;48.362;10.994;2022-08-19T06:42:05;20.70;99.90
6164;DHT22;3114;48.362;10.994;2022-08-19T06:44:36;20.70;99.90
6164;DHT22;3114;48.362;10.994;2022-08-19T06:47:08;20.70;99.90
6164;DHT22;3114;48.362;10.994;2022-08-19T06:49:37;20.80;99.90
6164;DHT22;3114;48.362;10.994;2022-08-19T06:52:06;20.60;99.90
6164;DHT22;3114;48.362;10.994;2022-08-19T06:54:33;20.60;99.90
6164;DHT22;3114;48.362;10.994;2022-08-19T06:57:04;20.70;99.90
6164;DHT22;3114;48.362;10.994;2022-08-19T06:59:31;20.50;99.90
6164;DHT22;3114;48.362;10.994;2022-08-19T07:02:05;20.60;99.90
6164;DHT22;3114;48.362;10.994;2022-08-19T07:04:33;20.70;99.90
6164;DHT22;3114;48.362;10.994;2022-08-19T07:07:07;22.00;99.90
6164;DHT22;3114;48.362;10.994;2022-08-19T07:09:39;20.50;99.90
6164;DHT22;3114;48.362;10.994;2022-08-19T07:12:12;21.50;99.90
6164;DHT22;3114;48.362;10.994;2022-08-19T07:14:43;20.60;99.90
6164;DHT22;3114;48.362;10.994;2022-08-19T07:17:12;20.60;99.90
6164;DHT22;3114;48.362;10.994;2022-08-19T07:19:41;20.40;99.90
6164;DHT22;3114;48.362;10.994;2022-08-19T07:22:12;20.40;99.90
6164;DHT22;3114;48.362;10.994;2022-08-19T07:24:42;20.20;99.90
6164;DHT22;3114;48.362;10.994;2022-08-19T07:27:14;20.10;99.90
6164;DHT22;3114;48.362;10.994;2022-08-19T07:29:42;20.60;99.90
6164;DHT22;3114;48.362;10.994;2022-08-19T07:32:10;20.20;99.90
6164;DHT22;3114;48.362;10.994;2022-08-19T07:34:41;19.70;99.90
6164;DHT22;3114;48.362;10.994;2022-08-19T07:37:12;20.10;99.90
6164;DHT22;3114;48.362;10.994;2022-08-19T07:39:39;20.10;99.90
6164;DHT22;3114;48.362;10.994;2022-08-19T07:42:11;20.20;99.90
6164;DHT22;3114;48.362;10.994;2022-08-19T07:44:40;20.90;99.90
6164;DHT22;3114;48.362;10.994;2022-08-19T07:47:07;20.50;99.90
6164;DHT22;3114;48.362;10.994;2022-08-19T07:49:34;20.40;99.90
6164;DHT22;3114;48.362;10.994;2022-08-19T07:52:12;20.40;99.90
6164;DHT22;3114;48.362;10.994;2022-08-19T07:54:43;20.40;99.90
6164;DHT22;3114;48.362;10.994;2022-08-19T07:57:12;20.40;99.90
6164;DHT22;3114;48.362;10.994;2022-08-19T07:59:39;20.50;99.90
6164;DHT22;3114;48.362;10.994;2022-08-19T08:02:06;20.50;99.90
6164;DHT22;3114;48.362;10.994;2022-08-19T08:04:34;20.60;99.90
6164;DHT22;3114;48.362;10.994;2022-08-19T08:07:20;20.50;99.90
6164;DHT22;3114;48.362;10.994;2022-08-19T08:10:06;20.30;99.90
6164;DHT22;3114;48.362;10.994;2022-08-19T08:12:36;19.10;99.90
6164;DHT22;3114;48.362;10.994;2022-08-19T08:15:11;20.20;99.90
6164;DHT22;3114;48.362;10.994;2022-08-19T08:17:42;20.10;99.90
6164;DHT22;3114;48.362;10.994;2022-08-19T08:20:10;20.10;99.90
6164;DHT22;3114;48.362;10.994;2022-08-19T08:22:43;20.20;99.90
6164;DHT22;3114;48.362;10.994;2022-08-19T08:25:27;20.10;99.90
6164;DHT22;3114;48.362;10.994;2022-08-19T08:27:58;20.10;99.90
6164;DHT22;3114;48.362;10.994;2022-08-19T08:30:26;20.00;99.90
6164;DHT22;3114;48.362;10.994;2022-08-19T08:32:53;19.90;99.90
6164;DHT22;3114;48.362;10.994;2022-08-19T08:35:26;19.80;99.90
6164;DHT22;3114;48.362;10.994;2022-08-19T08:37:57;19.90;99.90
6164;DHT22;3114;48.362;10.994;2022-08-19T08:40:30;20.10;99.90
6164;DHT22;3114;48.362;10.994;2022-08-19T08:43:03;20.10;99.90
6164;DHT22;3114;48.362;10.994;2022-08-19T08:45:33;20.00;99.90
6164;DHT22;3114;48.362;10.994;2022-08-19T08:48:09;20.10;99.90
6164;DHT22;3114;48.362;10.994;2022-08-19T08:50:42;20.30;99.90
6164;DHT22;3114;48.362;10.994;2022-08-19T08:53:20;20.20;99.90
6164;DHT22;3114;48.362;10.994;2022-08-19T08:55:50;20.30;99.90
6164;DHT22;3114;48.362;10.994;2022-08-19T08:58:26;20.40;99.90
6164;DHT22;3114;48.362;10.994;2022-08-19T09:00:59;20.60;99.90
6164;DHT22;3114;48.362;10.994;2022-08-19T09:03:30;20.30;99.90
6164;DHT22;3114;48.362;10.994;2022-08-19T09:06:03;20.30;99.90
6164;DHT22;3114;48.362;10.994;2022-08-19T09:08:49;20.30;99.90
6164;DHT22;3114;48.362;10.994;2022-08-19T09:11:38;20.40;99.90
6164;DHT22;3114;48.362;10.994;2022-08-19T09:14:26;20.40;99.90
6164;DHT22;3114;48.362;10.994;2022-08-19T09:17:04;20.40;99.90
6164;DHT22;3114;48.362;10.994;2022-08-19T09:19:35;20.50;99.90
6164;DHT22;3114;48.362;10.994;2022-08-19T09:22:02;20.60;99.90
6164;DHT22;3114;48.362;10.994;2022-08-19T09:24:32;20.40;99.90
6164;DHT22;3114;48.362;10.994;2022-08-19T09:27:03;20.90;99.90
6164;DHT22;3114;48.362;10.994;2022-08-19T09:29:31;20.80;99.90
6164;DHT22;3114;48.362;10.994;2022-08-19T09:31:58;20.60;99.90
6164;DHT22;3114;48.362;10.994;2022-08-19T09:34:26;20.60;99.90
6164;DHT22;3114;48.362;10.994;2022-08-19T09:36:56;20.50;99.90
6164;DHT22;3114;48.362;10.994;2022-08-19T09:39:24;20.60;99.90
6164;DHT22;3114;48.362;10.994;2022-08-19T09:41:52;20.70;99.90
6164;DHT22;3114;48.362;10.994;2022-08-19T09:44:20;20.60;99.90
6164;DHT22;3114;48.362;10.994;2022-08-19T09:46:47;20.60;99.90
6164;DHT22;3114;48.362;10.994;2022-08-19T09:49:15;20.40;99.90
6164;DHT22;3114;48.362;10.994;2022-08-19T09:51:42;20.40;99.90
6164;DHT22;3114;48.362;10.994;2022-08-19T09:54:09;20.50;99.90
6164;DHT22;3114;48.362;10.994;2022-08-19T09:56:36;20.20;99.90
6164;DHT22;3114;48.362;10.994;2022-08-19T09:59:11;20.00;99.90
6164;DHT22;3114;48.362;10.994;2022-08-19T10:01:38;21.00;99.90
6164;DHT22;3114;48.362;10.994;2022-08-19T10:04:08;20.10;99.90
6164;DHT22;3114;48.362;10.994;2022-08-19T10:06:40;20.20;99.90
6164;DHT22;3114;48.362;10.994;2022-08-19T10:09:09;20.10;99.90
6164;DHT22;3114;48.362;10.994;2022-08-19T10:11:40;20.10;99.90
6164;DHT22;3114;48.362;10.994;2022-08-19T10:14:26;20.00;99.90
6164;DHT22;3114;48.362;10.994;2022-08-19T10:17:16;20.30;99.90
6164;DHT22;3114;48.362;10.994;2022-08-19T10:30:32;19.90;99.90
6164;DHT22;3114;48.362;10.994;2022-08-19T10:43:26;19.60;99.90
6164;DHT22;3114;48.362;10.994;2022-08-19T10:45:57;19.60;99.90
6164;DHT22;3114;48.362;10.994;2022-08-19T10:48:25;19.80;99.90
6164;DHT22;3114;48.362;10.994;2022-08-19T10:51:05;19.60;99.90
6164;DHT22;3114;48.362;10.994;2022-08-19T10:53:52;19.10;99.90
6164;DHT22;3114;48.362;10.994;2022-08-19T10:56:19;18.80;99.90
6164;DHT22;3114;48.362;10.994;2022-08-19T10:59:04;18.80;99.90
6164;DHT22;3114;48.362;10.994;2022-08-19T11:07:55;19.10;99.90
6164;DHT22;3114;48.362;10.994;2022-08-19T11:10:24;17.70;99.90
6164;DHT22;3114;48.362;10.994;2022-08-19T11:12:54;19.00;99.90
6164;DHT22;3114;48.362;10.994;2022-08-19T11:15:21;18.80;99.90
6164;DHT22;3114;48.362;10.994;2022-08-19T11:17:48;18.60;93.50
6164;DHT22;3114;48.362;10.994;2022-08-19T11:20:17;18.40;21.70
6164;DHT22;3114;48.362;10.994;2022-08-19T11:22:46;18.30;1.00
6164;DHT22;3114;48.362;10.994;2022-08-19T11:25:16;18.20;1.00
6164;DHT22;3114;48.362;10.994;2022-08-19T11:27:43;18.20;1.00
6164;DHT22;3114;48.362;10.994;2022-08-19T11:30:13;18.30;1.00
6164;DHT22;3114;48.362;10.994;2022-08-19T11:32:40;17.80;1.00
6164;DHT22;3114;48.362;10.994;2022-08-19T11:35:08;18.30;1.00
6164;DHT22;3114;48.362;10.994;2022-08-19T11:37:38;18.40;1.00
6164;DHT22;3114;48.362;10.994;2022-08-19T11:40:06;18.60;1.00
6164;DHT22;3114;48.362;10.994;2022-08-19T11:42:33;18.60;6.30
6164;DHT22;3114;48.362;10.994;2022-08-19T11:45:18;18.90;67.80
6164;DHT22;3114;48.362;10.994;2022-08-19T11:47:44;18.80;99.90
6164;DHT22;3114;48.362;10.994;2022-08-19T11:50:12;18.90;99.90
6164;DHT22;3114;48.362;10.994;2022-08-19T11:52:41;18.90;99.90
6164;DHT22;3114;48.362;10.994;2022-08-19T11:55:10;19.00;99.90
6164;DHT22;3114;48.362;10.994;2022-08-19T11:57:37;19.00;99.90
6164;DHT22;3114;48.362;10.994;2022-08-19T12:00:09;19.10;99.90
6164;DHT22;3114;48.362;10.994;2022-08-19T12:02:37;19.00;99.90
6164;DHT22;3114;48.362;10.994;2022-08-19T12:05:05;19.10;99.90
6164;DHT22;3114;48.362;10.994;2022-08-19T12:07:33;19.10;99.90
6164;DHT22;3114;48.362;10.994;2022-08-19T12:10:05;19.00;99.90
6164;DHT22;3114;48.362;10.994;2022-08-19T12:12:34;19.20;99.90
6164;DHT22;3114;48.362;10.994;2022-08-19T12:15:06;19.30;99.90
6164;DHT22;3114;48.362;10.994;2022-08-19T12:17:34;19.40;99.90
6164;DHT22;3114;48.362;10.994;2022-08-19T12:20:01;19.30;99.90
6164;DHT22;3114;48.362;10.994;2022-08-19T12:22:29;19.30;99.90
6164;DHT22;3114;48.362;10.994;2022-08-19T12:25:05;19.30;99.90
6164;DHT22;3114;48.362;10.994;2022-08-19T12:30:22;19.80;99.90
6164;DHT22;3114;48.362;10.994;2022-08-19T12:32:55;19.50;99.90
6164;DHT22;3114;48.362;10.994;2022-08-19T12:35:47;19.10;99.90
6164;DHT22;3114;48.362;10.994;2022-08-19T12:38:23;19.10;99.90
6164;DHT22;3114;48.362;10.994;2022-08-19T12:44:23;18.90;99.90
6164;DHT22;3114;48.362;10.994;2022-08-19T12:47:08;18.80;99.90
6164;DHT22;3114;48.362;10.994;2022-08-19T12:49:45;19.00;99.90
6164;DHT22;3114;48.362;10.994;2022-08-19T12:52:13;18.80;99.90
6164;DHT22;3114;48.362;10.994;2022-08-19T12:54:42;18.80;98.80
6164;DHT22;3114;48.362;10.994;2022-08-19T12:57:15;18.90;99.90
6164;DHT22;3114;48.362;10.994;2022-08-19T12:59:45;19.10;99.90
6164;DHT22;3114;48.362;10.994;2022-08-19T13:02:14;19.20;99.90
6164;DHT22;3114;48.362;10.994;2022-08-19T13:04:40;19.70;99.90
6164;DHT22;3114;48.362;10.994;2022-08-19T13:07:10;19.20;99.90
6164;DHT22;3114;48.362;10.994;2022-08-19T13:09:37;19.30;99.90
6164;DHT22;3114;48.362;10.994;2022-08-19T13:12:11;19.40;99.90
6164;DHT22;3114;48.362;10.994;2022-08-19T13:14:40;19.30;99.90
6164;DHT22;3114;48.362;10.994;2022-08-19T13:17:10;19.10;99.90
6164;DHT22;3114;48.362;10.994;2022-08-19T13:19:40;19.10;99.90
6164;DHT22;3114;48.362;10.994;2022-08-19T13:22:07;19.10;99.90
6164;DHT22;3114;48.362;10.994;2022-08-19T13:24:37;19.40;99.90
6164;DHT22;3114;48.362;10.994;2022-08-19T13:30:41;19.30;99.90
6164;DHT22;3114;48.362;10.994;2022-08-19T13:34:35;19.00;99.90
6164;DHT22;3114;48.362;10.994;2022-08-19T13:36:35;19.20;99.90
6164;DHT22;3114;48.362;10.994;2022-08-19T13:39:03;19.20;99.90
6164;DHT22;3114;48.362;10.994;2022-08-19T13:41:30;19.40;99.90
6164;DHT22;3114;48.362;10.994;2022-08-19T13:43:57;19.40;99.90
6164;DHT22;3114;48.362;10.994;2022-08-19T13:46:26;19.10;99.90
6164;DHT22;3114;48.362;10.994;2022-08-19T13:48:55;19.20;99.90
6164;DHT22;3114;48.362;10.994;2022-08-19T13:51:22;19.20;99.90
6164;DHT22;3114;48.362;10.994;2022-08-19T13:53:49;19.30;99.90
6164;DHT22;3114;48.362;10.994;2022-08-19T13:58:46;19.30;99.90
6164;DHT22;3114;48.362;10.994;2022-08-19T14:01:19;19.30;99.90
6164;DHT22;3114;48.362;10.994;2022-08-19T14:03:48;19.40;99.90
6164;DHT22;3114;48.362;10.994;2022-08-19T14:06:15;19.40;99.90
6164;DHT22;3114;48.362;10.994;2022-08-19T14:08:42;19.40;99.90
6164;DHT22;3114;48.362;10.994;2022-08-19T14:11:09;19.40;99.90
6164;DHT22;3114;48.362;10.994;2022-08-19T14:13:36;19.50;99.90
6164;DHT22;3114;48.362;10.994;2022-08-19T14:16:10;19.50;99.90
6164;DHT22;3114;48.362;10.994;2022-08-19T14:18:37;19.30;99.90
6164;DHT22;3114;48.362;10.994;2022-08-19T14:21:07;19.30;99.90
6164;DHT22;3114;48.362;10.994;2022-08-19T14:23:35;19.40;99.90
6164;DHT22;3114;48.362;10.994;2022-08-19T14:26:05;19.50;99.90
6164;DHT22;3114;48.362;10.994;2022-08-19T14:28:33;19.50;99.90
6164;DHT22;3114;48.362;10.994;2022-08-19T14:31:00;19.10;99.90
6164;DHT22;3114;48.362;10.994;2022-08-19T14:33:27;19.10;99.90
6164;DHT22;3114;48.362;10.994;2022-08-19T14:35:54;19.30;99.90
6164;DHT22;3114;48.362;10.994;2022-08-19T14:38:23;19.10;99.90
6164;DHT22;3114;48.362;10.994;2022-08-19T14:40:50;19.00;99.90
6164;DHT22;3114;48.362;10.994;2022-08-19T14:43:17;18.90;99.90
6164;DHT22;3114;48.362;10.994;2022-08-19T14:45:45;19.10;99.90
6164;DHT22;3114;48.362;10.994;2022-08-19T14:48:21;19.10;99.90
6164;DHT22;3114;48.362;10.994;2022-08-19T14:50:48;19.00;99.90
6164;DHT22;3114;48.362;10.994;2022-08-19T14:53:16;19.10;99.90
6164;DHT22;3114;48.362;10.994;2022-08-19T14:55:45;18.90;99.90
6164;DHT22;3114;48.362;10.994;2022-08-19T14:58:13;19.00;99.90
6164;DHT22;3114;48.362;10.994;2022-08-19T15:00:40;18.90;99.90
6164;DHT22;3114;48.362;10.994;2022-08-19T15:03:07;18.90;99.90
6164;DHT22;3114;48.362;10.994;2022-08-19T15:05:34;19.00;99.90
6164;DHT22;3114;48.362;10.994;2022-08-19T15:08:03;18.90;99.90
6164;DHT22;3114;48.362;10.994;2022-08-19T15:10:30;18.90;99.90
6164;DHT22;3114;48.362;10.994;2022-08-19T15:12:59;19.10;99.90
6164;DHT22;3114;48.362;10.994;2022-08-19T15:15:26;19.10;99.90
6164;DHT22;3114;48.362;10.994;2022-08-19T15:17:53;19.10;99.90
6164;DHT22;3114;48.362;10.994;2022-08-19T15:20:20;19.10;99.90
6164;DHT22;3114;48.362;10.994;2022-08-19T15:22:48;19.00;99.90
6164;DHT22;3114;48.362;10.994;2022-08-19T15:25:17;19.00;99.90
6164;DHT22;3114;48.362;10.994;2022-08-19T15:27:46;19.00;99.90
6164;DHT22;3114;48.362;10.994;2022-08-19T15:30:20;19.00;99.90
6164;DHT22;3114;48.362;10.994;2022-08-19T15:32:47;19.10;99.90
6164;DHT22;3114;48.362;10.994;2022-08-19T15:35:14;19.10;99.90
6164;DHT22;3114;48.362;10.994;2022-08-19T15:37:43;19.10;99.90
6164;DHT22;3114;48.362;10.994;2022-08-19T15:40:11;19.20;99.90
6164;DHT22;3114;48.362;10.994;2022-08-19T15:42:39;19.10;99.90
6164;DHT22;3114;48.362;10.994;2022-08-19T15:45:09;19.20;99.90
6164;DHT22;3114;48.362;10.994;2022-08-19T15:47:38;19.20;99.90
6164;DHT22;3114;48.362;10.994;2022-08-19T15:50:06;19.10;99.90
6164;DHT22;3114;48.362;10.994;2022-08-19T15:52:33;18.90;99.90
6164;DHT22;3114;48.362;10.994;2022-08-19T15:55:00;18.90;99.90
6164;DHT22;3114;48.362;10.994;2022-08-19T15:57:27;19.00;99.90
6164;DHT22;3114;48.362;10.994;2022-08-19T16:00:12;18.90;99.90
6164;DHT22;3114;48.362;10.994;2022-08-19T16:02:58;18.90;99.90
6164;DHT22;3114;48.362;10.994;2022-08-19T16:05:42;18.70;99.90
6164;DHT22;3114;48.362;10.994;2022-08-19T16:08:27;18.90;91.10
6164;DHT22;3114;48.362;10.994;2022-08-19T16:10:54;18.80;99.90
6164;DHT22;3114;48.362;10.994;2022-08-19T16:13:22;18.90;99.90
6164;DHT22;3114;48.362;10.994;2022-08-19T16:15:49;18.90;99.90
6164;DHT22;3114;48.362;10.994;2022-08-19T16:18:19;19.00;99.90
6164;DHT22;3114;48.362;10.994;2022-08-19T16:20:46;19.10;99.90
6164;DHT22;3114;48.362;10.994;2022-08-19T16:23:13;19.20;99.90
6164;DHT22;3114;48.362;10.994;2022-08-19T16:25:41;19.20;99.90
6164;DHT22;3114;48.362;10.994;2022-08-19T16:28:08;19.00;99.90
6164;DHT22;3114;48.362;10.994;2022-08-19T16:30:36;19.10;99.90
6164;DHT22;3114;48.362;10.994;2022-08-19T16:33:03;19.10;99.90
6164;DHT22;3114;48.362;10.994;2022-08-19T16:35:31;19.20;99.90
6164;DHT22;3114;48.362;10.994;2022-08-19T16:37:59;19.30;99.90
6164;DHT22;3114;48.362;10.994;2022-08-19T16:40:27;19.30;99.90
6164;DHT22;3114;48.362;10.994;2022-08-19T16:42:54;19.40;99.90
6164;DHT22;3114;48.362;10.994;2022-08-19T16:45:27;19.20;99.90
6164;DHT22;3114;48.362;10.994;2022-08-19T16:47:54;19.10;99.90
6164;DHT22;3114;48.362;10.994;2022-08-19T16:50:22;19.10;99.90
6164;DHT22;3114;48.362;10.994;2022-08-19T16:52:50;19.30;99.90
6164;DHT22;3114;48.362;10.994;2022-08-19T16:55:17;19.20;99.90
6164;DHT22;3114;48.362;10.994;2022-08-19T16:57:46;19.30;99.90
6164;DHT22;3114;48.362;10.994;2022-08-19T17:00:14;19.50;99.90
6164;DHT22;3114;48.362;10.994;2022-08-19T17:02:41;19.60;99.90
6164;DHT22;3114;48.362;10.994;2022-08-19T17:05:08;19.50;99.90
6164;DHT22;3114;48.362;10.994;2022-08-19T17:07:38;19.50;99.90
6164;DHT22;3114;48.362;10.994;2022-08-19T17:10:06;19.60;99.90
6164;DHT22;3114;48.362;10.994;2022-08-19T17:12:33;19.70;99.90
6164;DHT22;3114;48.362;10.994;2022-08-19T17:15:03;19.60;99.90
6164;DHT22;3114;48.362;10.994;2022-08-19T17:17:33;19.70;99.90
6164;DHT22;3114;48.362;10.994;2022-08-19T17:20:00;19.80;99.90
6164;DHT22;3114;48.362;10.994;2022-08-19T17:22:28;19.80;99.90
6164;DHT22;3114;48.362;10.994;2022-08-19T17:24:55;19.70;99.90
6164;DHT22;3114;48.362;10.994;2022-08-19T17:27:23;19.70;99.90